sensor_id;sensor_type;location;lat;lon;timestamp;pressure;altitude;pressure_sealevel;temperature;humidity
25498;BME280;13406;53.380;7.226;2022-09-09T00:02:19;100881.41;;;15.20;100.00
25498;BME280;13406;53.380;7.226;2022-09-09T00:13:19;100779.81;;;14.59;100.00
25498;BME280;13406;53.380;7.226;2022-09-09T00:16:04;100829.47;;;14.88;100.00
25498;BME280;13406;53.380;7.226;2022-09-09T00:21:36;100757.47;;;14.15;100.00
25498;BME280;13406;53.380;7.226;2022-09-09T00:24:23;100851.69;;;14.90;100.00
25498;BME280;13406;53.380;7.226;2022-09-09T00:26:54;100857.47;;;14.94;100.00
25498;BME280;13406;53.380;7.226;2022-09-09T00:29:33;100854.97;;;14.92;100.00
25498;BME280;13406;53.380;7.226;2022-09-09T00:32:11;100784.63;;;14.32;100.00
25498;BME280;13406;53.380;7.226;2022-09-09T00:34:51;100862.50;;;14.72;100.00
25498;BME280;13406;53.380;7.226;2022-09-09T00:37:19;100777.69;;;14.42;100.00
25498;BME280;13406;53.380;7.226;2022-09-09T00:39:46;100730.94;;;14.12;100.00
25498;BME280;13406;53.380;7.226;2022-09-09T00:42:24;100755.50;;;14.22;100.00
25498;BME280;13406;53.380;7.226;2022-09-09T00:45:05;100850.03;;;14.89;100.00
25498;BME280;13406;53.380;7.226;2022-09-09T00:47:40;100846.16;;;14.85;100.00
25498;BME280;13406;53.380;7.226;2022-09-09T00:55:34;100799.34;;;14.54;100.00
25498;BME280;13406;53.380;7.226;2022-09-09T00:58:07;100817.34;;;14.60;100.00
25498;BME280;13406;53.380;7.226;2022-09-09T01:00:43;100847.81;;;14.67;100.00
25498;BME280;13406;53.380;7.226;2022-09-09T01:06:12;100857.19;;;14.65;100.00
25498;BME280;13406;53.380;7.226;2022-09-09T01:09:04;100867.59;;;14.61;100.00
25498;BME280;13406;53.380;7.226;2022-09-09T01:12:01;100867.13;;;14.83;100.00
25498;BME280;13406;53.380;7.226;2022-09-09T01:17:05;100774.50;;;14.09;100.00
25498;BME280;13406;53.380;7.226;2022-09-09T01:19:52;100847.63;;;14.81;100.00
25498;BME280;13406;53.380;7.226;2022-09-09T01:22:44;100842.44;;;14.98;100.00
25498;BME280;13406;53.380;7.226;2022-09-09T01:25:56;100840.31;;;14.69;100.00
25498;BME280;13406;53.380;7.226;2022-09-09T01:28:17;100844.63;;;14.52;100.00
25498;BME280;13406;53.380;7.226;2022-09-09T01:30:44;100737.19;;;13.87;100.00
25498;BME280;13406;53.380;7.226;2022-09-09T01:33:14;100842.16;;;14.69;100.00
25498;BME280;13406;53.380;7.226;2022-09-09T01:35:53;100710.75;;;13.77;100.00
25498;BME280;13406;53.380;7.226;2022-09-09T01:38:21;100820.69;;;14.37;100.00
25498;BME280;13406;53.380;7.226;2022-09-09T01:40:47;100770.41;;;14.06;100.00
25498;BME280;13406;53.380;7.226;2022-09-09T01:43:14;100720.72;;;13.95;100.00
25498;BME280;13406;53.380;7.226;2022-09-09T01:45:40;100853.06;;;14.37;100.00
25498;BME280;13406;53.380;7.226;2022-09-09T01:48:07;100767.03;;;13.92;100.00
25498;BME280;13406;53.380;7.226;2022-09-09T01:50:32;100714.84;;;13.62;100.00
25498;BME280;13406;53.380;7.226;2022-09-09T01:52:59;100835.56;;;14.46;100.00
25498;BME280;13406;53.380;7.226;2022-09-09T01:55:39;100732.91;;;13.79;100.00
25498;BME280;13406;53.380;7.226;2022-09-09T02:00:30;100841.66;;;14.60;100.00
25498;BME280;13406;53.380;7.226;2022-09-09T02:03:24;100824.03;;;14.58;100.00
25498;BME280;13406;53.380;7.226;2022-09-09T02:06:08;100745.28;;;13.87;100.00
25498;BME280;13406;53.380;7.226;2022-09-09T02:08:43;100771.97;;;13.95;100.00
25498;BME280;13406;53.380;7.226;2022-09-09T02:11:16;100835.22;;;14.61;100.00
25498;BME280;13406;53.380;7.226;2022-09-09T02:13:44;100695.63;;;13.76;100.00
25498;BME280;13406;53.380;7.226;2022-09-09T02:16:33;100825.16;;;14.68;100.00
25498;BME280;13406;53.380;7.226;2022-09-09T02:19:03;100830.84;;;14.79;100.00
25498;BME280;13406;53.380;7.226;2022-09-09T02:21:32;100802.88;;;14.36;100.00
25498;BME280;13406;53.380;7.226;2022-09-09T02:24:02;100822.00;;;14.53;100.00
25498;BME280;13406;53.380;7.226;2022-09-09T02:26:31;100796.31;;;14.25;100.00
25498;BME280;13406;53.380;7.226;2022-09-09T02:29:01;100767.66;;;13.88;100.00
25498;BME280;13406;53.380;7.226;2022-09-09T02:31:28;100709.97;;;13.70;100.00
25498;BME280;13406;53.380;7.226;2022-09-09T02:34:01;100813.66;;;14.18;100.00
25498;BME280;13406;53.380;7.226;2022-09-09T02:36:29;100784.94;;;14.05;100.00
25498;BME280;13406;53.380;7.226;2022-09-09T02:38:58;100825.56;;;14.29;100.00
25498;BME280;13406;53.380;7.226;2022-09-09T02:41:32;100689.56;;;13.63;100.00
25498;BME280;13406;53.380;7.226;2022-09-09T02:43:58;100812.66;;;14.49;100.00
25498;BME280;13406;53.380;7.226;2022-09-09T02:46:32;100820.13;;;14.35;100.00
25498;BME280;13406;53.380;7.226;2022-09-09T02:49:10;100797.31;;;14.31;100.00
25498;BME280;13406;53.380;7.226;2022-09-09T02:52:06;100817.16;;;14.37;100.00
25498;BME280;13406;53.380;7.226;2022-09-09T02:54:34;100808.47;;;14.35;100.00
25498;BME280;13406;53.380;7.226;2022-09-09T02:57:21;100826.50;;;14.41;100.00
25498;BME280;13406;53.380;7.226;2022-09-09T02:59:48;100711.16;;;13.56;100.00
25498;BME280;13406;53.380;7.226;2022-09-09T03:02:15;100683.03;;;13.52;100.00
25498;BME280;13406;53.380;7.226;2022-09-09T03:04:40;100835.06;;;14.56;100.00
25498;BME280;13406;53.380;7.226;2022-09-09T03:07:08;100681.59;;;13.68;100.00
25498;BME280;13406;53.380;7.226;2022-09-09T03:09:35;100702.50;;;13.54;100.00
25498;BME280;13406;53.380;7.226;2022-09-09T03:12:00;100797.91;;;14.33;100.00
25498;BME280;13406;53.380;7.226;2022-09-09T03:14:26;100729.75;;;13.83;100.00
25498;BME280;13406;53.380;7.226;2022-09-09T03:16:52;100839.81;;;14.36;100.00
25498;BME280;13406;53.380;7.226;2022-09-09T03:19:18;100783.38;;;14.16;100.00
25498;BME280;13406;53.380;7.226;2022-09-09T03:21:44;100664.38;;;13.50;100.00
25498;BME280;13406;53.380;7.226;2022-09-09T03:24:10;100672.97;;;13.59;100.00
25498;BME280;13406;53.380;7.226;2022-09-09T03:26:35;100731.06;;;13.98;100.00
25498;BME280;13406;53.380;7.226;2022-09-09T03:29:03;100744.78;;;14.34;100.00
25498;BME280;13406;53.380;7.226;2022-09-09T03:31:32;100811.66;;;14.68;100.00
25498;BME280;13406;53.380;7.226;2022-09-09T03:33:57;100658.47;;;13.60;100.00
25498;BME280;13406;53.380;7.226;2022-09-09T03:36:24;100820.47;;;14.94;100.00
25498;BME280;13406;53.380;7.226;2022-09-09T03:38:51;100808.56;;;14.46;100.00
25498;BME280;13406;53.380;7.226;2022-09-09T03:41:16;100713.69;;;13.94;100.00
25498;BME280;13406;53.380;7.226;2022-09-09T03:43:42;100711.78;;;13.76;100.00
25498;BME280;13406;53.380;7.226;2022-09-09T03:46:08;100725.66;;;14.17;100.00
25498;BME280;13406;53.380;7.226;2022-09-09T03:48:33;100728.06;;;14.07;100.00
25498;BME280;13406;53.380;7.226;2022-09-09T03:50:58;100819.03;;;14.61;100.00
25498;BME280;13406;53.380;7.226;2022-09-09T03:53:26;100803.97;;;14.29;100.00
25498;BME280;13406;53.380;7.226;2022-09-09T03:55:54;100676.16;;;13.31;100.00
25498;BME280;13406;53.380;7.226;2022-09-09T03:58:21;100699.00;;;13.47;100.00
25498;BME280;13406;53.380;7.226;2022-09-09T04:00:57;100825.91;;;14.14;100.00
25498;BME280;13406;53.380;7.226;2022-09-09T04:03:24;100759.22;;;13.59;100.00
25498;BME280;13406;53.380;7.226;2022-09-09T04:05:50;100784.13;;;13.79;100.00
25498;BME280;13406;53.380;7.226;2022-09-09T04:08:16;100843.31;;;14.18;100.00
25498;BME280;13406;53.380;7.226;2022-09-09T04:10:42;100742.22;;;13.59;100.00
25498;BME280;13406;53.380;7.226;2022-09-09T04:13:07;100770.81;;;13.85;100.00
25498;BME280;13406;53.380;7.226;2022-09-09T04:15:32;100795.53;;;13.82;100.00
25498;BME280;13406;53.380;7.226;2022-09-09T04:17:58;100740.09;;;13.67;100.00
25498;BME280;13406;53.380;7.226;2022-09-09T04:20:23;100755.22;;;13.68;100.00
25498;BME280;13406;53.380;7.226;2022-09-09T04:22:49;100830.66;;;14.18;100.00
25498;BME280;13406;53.380;7.226;2022-09-09T04:25:15;100687.81;;;13.18;100.00
25498;BME280;13406;53.380;7.226;2022-09-09T04:27:40;100778.59;;;13.74;100.00
25498;BME280;13406;53.380;7.226;2022-09-09T04:30:08;100839.66;;;14.12;100.00
25498;BME280;13406;53.380;7.226;2022-09-09T04:32:34;100861.31;;;14.24;100.00
25498;BME280;13406;53.380;7.226;2022-09-09T04:35:01;100784.75;;;13.82;100.00
25498;BME280;13406;53.380;7.226;2022-09-09T04:37:26;100799.69;;;14.02;100.00
25498;BME280;13406;53.380;7.226;2022-09-09T04:39:52;100850.91;;;14.46;100.00
25498;BME280;13406;53.380;7.226;2022-09-09T04:42:17;100780.78;;;14.02;100.00
25498;BME280;13406;53.380;7.226;2022-09-09T04:44:44;100863.31;;;14.54;100.00
25498;BME280;13406;53.380;7.226;2022-09-09T04:47:10;100776.81;;;13.87;100.00
25498;BME280;13406;53.380;7.226;2022-09-09T04:49:35;100805.25;;;14.26;100.00
25498;BME280;13406;53.380;7.226;2022-09-09T04:52:02;100843.63;;;14.28;100.00
25498;BME280;13406;53.380;7.226;2022-09-09T04:54:28;100789.59;;;14.16;100.00
25498;BME280;13406;53.380;7.226;2022-09-09T04:56:53;100857.47;;;14.57;100.00
25498;BME280;13406;53.380;7.226;2022-09-09T04:59:20;100762.25;;;13.94;100.00
25498;BME280;13406;53.380;7.226;2022-09-09T05:01:45;100743.38;;;13.69;100.00
25498;BME280;13406;53.380;7.226;2022-09-09T05:04:11;100785.00;;;13.98;100.00
25498;BME280;13406;53.380;7.226;2022-09-09T05:06:36;100879.88;;;14.57;100.00
25498;BME280;13406;53.380;7.226;2022-09-09T05:09:02;100778.25;;;14.08;100.00
25498;BME280;13406;53.380;7.226;2022-09-09T05:11:30;100846.03;;;14.36;100.00
25498;BME280;13406;53.380;7.226;2022-09-09T05:13:57;100792.91;;;13.93;100.00
25498;BME280;13406;53.380;7.226;2022-09-09T05:16:23;100732.94;;;13.54;100.00
25498;BME280;13406;53.380;7.226;2022-09-09T05:18:49;100872.03;;;14.56;100.00
25498;BME280;13406;53.380;7.226;2022-09-09T05:21:17;100879.59;;;14.65;100.00
25498;BME280;13406;53.380;7.226;2022-09-09T05:23:43;100797.59;;;14.23;100.00
25498;BME280;13406;53.380;7.226;2022-09-09T05:26:13;100859.41;;;14.86;100.00
25498;BME280;13406;53.380;7.226;2022-09-09T05:28:38;100884.84;;;14.79;100.00
25498;BME280;13406;53.380;7.226;2022-09-09T05:31:08;100857.25;;;14.58;100.00
25498;BME280;13406;53.380;7.226;2022-09-09T05:33:35;100799.47;;;14.22;100.00
25498;BME280;13406;53.380;7.226;2022-09-09T05:36:03;100873.75;;;14.43;100.00
25498;BME280;13406;53.380;7.226;2022-09-09T05:38:31;100797.88;;;13.96;100.00
25498;BME280;13406;53.380;7.226;2022-09-09T05:40:57;100882.41;;;14.52;100.00
25498;BME280;13406;53.380;7.226;2022-09-09T05:43:24;100787.34;;;13.70;100.00
25498;BME280;13406;53.380;7.226;2022-09-09T05:46:08;100883.19;;;14.34;100.00
25498;BME280;13406;53.380;7.226;2022-09-09T05:48:38;100806.84;;;13.90;100.00
25498;BME280;13406;53.380;7.226;2022-09-09T05:51:05;100889.53;;;14.46;100.00
25498;BME280;13406;53.380;7.226;2022-09-09T05:53:34;100898.41;;;14.54;100.00
25498;BME280;13406;53.380;7.226;2022-09-09T05:56:01;100891.69;;;14.38;100.00
25498;BME280;13406;53.380;7.226;2022-09-09T05:58:29;100902.91;;;14.35;100.00
25498;BME280;13406;53.380;7.226;2022-09-09T06:01:01;100717.41;;;13.31;100.00
25498;BME280;13406;53.380;7.226;2022-09-09T06:03:27;100870.75;;;14.15;100.00
25498;BME280;13406;53.380;7.226;2022-09-09T06:05:59;100791.09;;;13.69;100.00
25498;BME280;13406;53.380;7.226;2022-09-09T06:08:25;100805.16;;;13.71;100.00
25498;BME280;13406;53.380;7.226;2022-09-09T06:10:51;100799.66;;;13.59;100.00
25498;BME280;13406;53.380;7.226;2022-09-09T06:13:17;100811.84;;;13.62;100.00
25498;BME280;13406;53.380;7.226;2022-09-09T06:15:52;100849.88;;;14.04;100.00
25498;BME280;13406;53.380;7.226;2022-09-09T06:18:18;100818.41;;;13.72;100.00
25498;BME280;13406;53.380;7.226;2022-09-09T06:20:57;100847.19;;;14.04;100.00
25498;BME280;13406;53.380;7.226;2022-09-09T06:23:24;100764.06;;;13.50;100.00
25498;BME280;13406;53.380;7.226;2022-09-09T06:25:50;100922.19;;;14.38;100.00
25498;BME280;13406;53.380;7.226;2022-09-09T06:28:17;100843.44;;;13.79;100.00
25498;BME280;13406;53.380;7.226;2022-09-09T06:30:42;100808.25;;;13.74;100.00
25498;BME280;13406;53.380;7.226;2022-09-09T06:33:08;100923.06;;;14.57;100.00
25498;BME280;13406;53.380;7.226;2022-09-09T06:35:34;100856.09;;;14.04;100.00
25498;BME280;13406;53.380;7.226;2022-09-09T06:38:00;100801.09;;;13.87;100.00
25498;BME280;13406;53.380;7.226;2022-09-09T06:40:25;100805.41;;;13.88;100.00
25498;BME280;13406;53.380;7.226;2022-09-09T06:42:51;100841.97;;;13.84;100.00
25498;BME280;13406;53.380;7.226;2022-09-09T06:45:16;100770.72;;;13.73;100.00
25498;BME280;13406;53.380;7.226;2022-09-09T06:47:43;100817.91;;;13.82;100.00
25498;BME280;13406;53.380;7.226;2022-09-09T06:50:09;100891.47;;;14.39;100.00
25498;BME280;13406;53.380;7.226;2022-09-09T06:52:35;100803.94;;;13.92;100.00
25498;BME280;13406;53.380;7.226;2022-09-09T06:55:00;100823.13;;;14.02;100.00
25498;BME280;13406;53.380;7.226;2022-09-09T06:57:26;100893.63;;;14.56;100.00
25498;BME280;13406;53.380;7.226;2022-09-09T06:59:51;100918.28;;;14.78;100.00
25498;BME280;13406;53.380;7.226;2022-09-09T07:02:16;100908.09;;;14.80;100.00
25498;BME280;13406;53.380;7.226;2022-09-09T07:04:42;100816.00;;;14.33;100.00
25498;BME280;13406;53.380;7.226;2022-09-09T07:07:08;100803.16;;;14.28;100.00
25498;BME280;13406;53.380;7.226;2022-09-09T07:09:35;100901.94;;;14.91;100.00
25498;BME280;13406;53.380;7.226;2022-09-09T07:12:00;100919.16;;;15.27;100.00
25498;BME280;13406;53.380;7.226;2022-09-09T07:14:26;100904.50;;;14.86;100.00
25498;BME280;13406;53.380;7.226;2022-09-09T07:16:52;100926.31;;;15.03;100.00
25498;BME280;13406;53.380;7.226;2022-09-09T07:19:17;100918.81;;;15.05;100.00
25498;BME280;13406;53.380;7.226;2022-09-09T07:21:43;100917.38;;;14.84;100.00
25498;BME280;13406;53.380;7.226;2022-09-09T07:24:09;100910.44;;;14.76;100.00
25498;BME280;13406;53.380;7.226;2022-09-09T07:26:36;100839.25;;;14.52;100.00
25498;BME280;13406;53.380;7.226;2022-09-09T07:29:02;100928.22;;;15.32;100.00
25498;BME280;13406;53.380;7.226;2022-09-09T07:31:31;100887.69;;;15.02;100.00
25498;BME280;13406;53.380;7.226;2022-09-09T07:33:57;100830.94;;;14.54;100.00
25498;BME280;13406;53.380;7.226;2022-09-09T07:36:30;100829.28;;;14.53;100.00
25498;BME280;13406;53.380;7.226;2022-09-09T07:38:58;100916.56;;;15.20;100.00
25498;BME280;13406;53.380;7.226;2022-09-09T07:41:30;100925.56;;;15.44;100.00
25498;BME280;13406;53.380;7.226;2022-09-09T07:43:57;100922.78;;;15.69;100.00
25498;BME280;13406;53.380;7.226;2022-09-09T07:46:25;100923.94;;;15.43;100.00
25498;BME280;13406;53.380;7.226;2022-09-09T07:48:55;100921.75;;;15.52;100.00
25498;BME280;13406;53.380;7.226;2022-09-09T07:51:32;100848.94;;;15.08;100.00
25498;BME280;13406;53.380;7.226;2022-09-09T07:54:00;100893.50;;;15.78;100.00
25498;BME280;13406;53.380;7.226;2022-09-09T07:56:28;100891.75;;;15.53;100.00
25498;BME280;13406;53.380;7.226;2022-09-09T07:58:55;100911.06;;;15.57;100.00
25498;BME280;13406;53.380;7.226;2022-09-09T08:04:02;100846.06;;;15.64;100.00
25498;BME280;13406;53.380;7.226;2022-09-09T08:06:34;100903.16;;;15.74;100.00
25498;BME280;13406;53.380;7.226;2022-09-09T08:09:00;100916.53;;;15.69;100.00
25498;BME280;13406;53.380;7.226;2022-09-09T08:11:27;100913.56;;;16.12;100.00
25498;BME280;13406;53.380;7.226;2022-09-09T08:13:53;100905.13;;;16.20;100.00
25498;BME280;13406;53.380;7.226;2022-09-09T08:16:21;100904.97;;;16.03;100.00
25498;BME280;13406;53.380;7.226;2022-09-09T08:18:51;100916.25;;;16.00;100.00
25498;BME280;13406;53.380;7.226;2022-09-09T08:21:19;100822.50;;;15.71;100.00
25498;BME280;13406;53.380;7.226;2022-09-09T08:23:46;100806.50;;;15.69;100.00
25498;BME280;13406;53.380;7.226;2022-09-09T08:26:21;100898.75;;;16.26;100.00
25498;BME280;13406;53.380;7.226;2022-09-09T08:28:48;100909.19;;;16.11;100.00
25498;BME280;13406;53.380;7.226;2022-09-09T08:31:18;100914.41;;;16.13;100.00
25498;BME280;13406;53.380;7.226;2022-09-09T08:33:44;100921.59;;;16.42;100.00
25498;BME280;13406;53.380;7.226;2022-09-09T08:36:18;100927.00;;;16.54;100.00
25498;BME280;13406;53.380;7.226;2022-09-09T08:38:46;100919.94;;;16.77;100.00
25498;BME280;13406;53.380;7.226;2022-09-09T08:43:58;100933.00;;;16.91;100.00
25498;BME280;13406;53.380;7.226;2022-09-09T08:51:43;100862.59;;;16.56;100.00
25498;BME280;13406;53.380;7.226;2022-09-09T08:54:08;100800.19;;;16.63;100.00
25498;BME280;13406;53.380;7.226;2022-09-09T08:56:35;100813.50;;;16.64;100.00
25498;BME280;13406;53.380;7.226;2022-09-09T08:59:02;100803.88;;;16.45;100.00
25498;BME280;13406;53.380;7.226;2022-09-09T09:04:32;100762.63;;;16.26;100.00
25498;BME280;13406;53.380;7.226;2022-09-09T09:07:24;100901.97;;;17.39;100.00
25498;BME280;13406;53.380;7.226;2022-09-09T09:09:57;100894.28;;;17.48;100.00
25498;BME280;13406;53.380;7.226;2022-09-09T09:12:30;100812.97;;;17.20;100.00
25498;BME280;13406;53.380;7.226;2022-09-09T09:15:00;100823.53;;;17.04;100.00
25498;BME280;13406;53.380;7.226;2022-09-09T09:17:28;100843.50;;;17.15;100.00
25498;BME280;13406;53.380;7.226;2022-09-09T09:19:56;100892.31;;;17.60;100.00
25498;BME280;13406;53.380;7.226;2022-09-09T09:22:39;100894.00;;;17.50;100.00
25498;BME280;13406;53.380;7.226;2022-09-09T09:25:17;100881.31;;;17.50;100.00
25498;BME280;13406;53.380;7.226;2022-09-09T09:30:18;100873.31;;;17.44;100.00
25498;BME280;13406;53.380;7.226;2022-09-09T09:32:56;100794.97;;;17.13;100.00
25498;BME280;13406;53.380;7.226;2022-09-09T09:35:24;100881.72;;;17.76;100.00
25498;BME280;13406;53.380;7.226;2022-09-09T09:37:50;100776.69;;;17.37;100.00
25498;BME280;13406;53.380;7.226;2022-09-09T09:40:19;100756.28;;;17.35;100.00
25498;BME280;13406;53.380;7.226;2022-09-09T09:43:02;100798.53;;;17.65;100.00
25498;BME280;13406;53.380;7.226;2022-09-09T09:45:43;100867.16;;;17.94;100.00
25498;BME280;13406;53.380;7.226;2022-09-09T09:48:12;100883.28;;;18.39;100.00
25498;BME280;13406;53.380;7.226;2022-09-09T09:50:56;100880.88;;;17.87;100.00
25498;BME280;13406;53.380;7.226;2022-09-09T09:53:32;100807.81;;;17.52;100.00
25498;BME280;13406;53.380;7.226;2022-09-09T09:58:33;100879.06;;;17.93;100.00
25498;BME280;13406;53.380;7.226;2022-09-09T10:01:03;100815.72;;;17.53;100.00
25498;BME280;13406;53.380;7.226;2022-09-09T10:03:34;100812.41;;;17.34;100.00
25498;BME280;13406;53.380;7.226;2022-09-09T12:23:48;100825.09;;;20.67;100.00
25498;BME280;13406;53.380;7.226;2022-09-09T12:26:26;100632.63;;;19.25;100.00
25498;BME280;13406;53.380;7.226;2022-09-09T12:32:22;100673.06;;;19.96;100.00
25498;BME280;13406;53.380;7.226;2022-09-09T12:34:53;100457.41;;;19.06;100.00
25498;BME280;13406;53.380;7.226;2022-09-09T12:37:36;100764.69;;;21.01;100.00
25498;BME280;13406;53.380;7.226;2022-09-09T12:42:29;100604.84;;;20.44;100.00
25498;BME280;13406;53.380;7.226;2022-09-09T12:45:00;100459.81;;;18.97;100.00
25498;BME280;13406;53.380;7.226;2022-09-09T12:47:38;100454.81;;;18.73;100.00
25498;BME280;13406;53.380;7.226;2022-09-09T12:50:18;100788.72;;;21.25;100.00
25498;BME280;13406;53.380;7.226;2022-09-09T12:52:44;100579.41;;;19.97;100.00
25498;BME280;13406;53.380;7.226;2022-09-09T12:55:20;100465.34;;;19.85;100.00
25498;BME280;13406;53.380;7.226;2022-09-09T12:57:47;100646.34;;;21.07;100.00
25498;BME280;13406;53.380;7.226;2022-09-09T13:00:18;100682.63;;;21.08;100.00
25498;BME280;13406;53.380;7.226;2022-09-09T13:02:49;100558.84;;;20.58;100.00
25498;BME280;13406;53.380;7.226;2022-09-09T13:05:23;100577.88;;;21.24;100.00
25498;BME280;13406;53.380;7.226;2022-09-09T13:07:49;100630.53;;;20.99;100.00
25498;BME280;13406;53.380;7.226;2022-09-09T13:10:22;100525.31;;;20.62;100.00
25498;BME280;13406;53.380;7.226;2022-09-09T13:12:49;100749.41;;;21.87;100.00
25498;BME280;13406;53.380;7.226;2022-09-09T13:15:20;100591.47;;;20.17;100.00
25498;BME280;13406;53.380;7.226;2022-09-09T13:18:04;100492.59;;;20.01;100.00
25498;BME280;13406;53.380;7.226;2022-09-09T13:20:31;100577.22;;;19.94;100.00
25498;BME280;13406;53.380;7.226;2022-09-09T13:22:57;100414.66;;;19.54;100.00
25498;BME280;13406;53.380;7.226;2022-09-09T13:25:27;100610.63;;;20.63;100.00
25498;BME280;13406;53.380;7.226;2022-09-09T13:28:02;100700.88;;;21.22;100.00
25498;BME280;13406;53.380;7.226;2022-09-09T13:30:36;100455.94;;;19.40;100.00
25498;BME280;13406;53.380;7.226;2022-09-09T13:35:53;100446.88;;;19.19;100.00
25498;BME280;13406;53.380;7.226;2022-09-09T13:38:20;100584.75;;;19.67;100.00
25498;BME280;13406;53.380;7.226;2022-09-09T13:40:57;100478.25;;;18.85;100.00
25498;BME280;13406;53.380;7.226;2022-09-09T13:43:25;100529.09;;;19.37;100.00
25498;BME280;13406;53.380;7.226;2022-09-09T13:46:03;100644.13;;;19.80;100.00
25498;BME280;13406;53.380;7.226;2022-09-09T13:48:29;100566.25;;;19.69;100.00
25498;BME280;13406;53.380;7.226;2022-09-09T13:51:01;100512.78;;;18.89;100.00
25498;BME280;13406;53.380;7.226;2022-09-09T13:53:28;100534.88;;;19.03;100.00
25498;BME280;13406;53.380;7.226;2022-09-09T13:55:54;100596.84;;;19.01;100.00
25498;BME280;13406;53.380;7.226;2022-09-09T13:58:19;100661.81;;;19.40;100.00
25498;BME280;13406;53.380;7.226;2022-09-09T14:00:45;100659.56;;;19.69;100.00
25498;BME280;13406;53.380;7.226;2022-09-09T14:03:11;100588.38;;;19.40;100.00
25498;BME280;13406;53.380;7.226;2022-09-09T14:05:37;100457.72;;;18.67;100.00
25498;BME280;13406;53.380;7.226;2022-09-09T14:08:04;100529.75;;;19.64;100.00
25498;BME280;13406;53.380;7.226;2022-09-09T14:10:30;100576.44;;;20.04;100.00
25498;BME280;13406;53.380;7.226;2022-09-09T14:12:56;100436.13;;;19.55;100.00
25498;BME280;13406;53.380;7.226;2022-09-09T14:15:21;100617.91;;;20.31;100.00
25498;BME280;13406;53.380;7.226;2022-09-09T14:17:47;100565.94;;;20.59;100.00
25498;BME280;13406;53.380;7.226;2022-09-09T14:20:14;100622.75;;;21.78;100.00
25498;BME280;13406;53.380;7.226;2022-09-09T14:22:41;100643.63;;;20.87;100.00
25498;BME280;13406;53.380;7.226;2022-09-09T14:25:07;100691.97;;;20.23;100.00
25498;BME280;13406;53.380;7.226;2022-09-09T14:27:33;100513.00;;;18.83;100.00
25498;BME280;13406;53.380;7.226;2022-09-09T14:29:58;100688.78;;;19.84;100.00
25498;BME280;13406;53.380;7.226;2022-09-09T14:32:25;100505.09;;;18.44;100.00
25498;BME280;13406;53.380;7.226;2022-09-09T14:34:51;100567.38;;;18.56;100.00
25498;BME280;13406;53.380;7.226;2022-09-09T14:37:17;100674.84;;;19.01;100.00
25498;BME280;13406;53.380;7.226;2022-09-09T14:39:43;100614.91;;;18.04;100.00
25498;BME280;13406;53.380;7.226;2022-09-09T14:42:13;100495.50;;;16.94;100.00
25498;BME280;13406;53.380;7.226;2022-09-09T14:44:38;100611.25;;;17.54;100.00
25498;BME280;13406;53.380;7.226;2022-09-09T14:47:05;100665.22;;;17.73;100.00
25498;BME280;13406;53.380;7.226;2022-09-09T14:49:31;100791.63;;;18.07;100.00
25498;BME280;13406;53.380;7.226;2022-09-09T14:51:56;100796.75;;;17.87;100.00
25498;BME280;13406;53.380;7.226;2022-09-09T14:54:22;100779.22;;;17.61;100.00
25498;BME280;13406;53.380;7.226;2022-09-09T14:56:48;100792.13;;;17.88;100.00
25498;BME280;13406;53.380;7.226;2022-09-09T14:59:13;100791.06;;;18.05;100.00
25498;BME280;13406;53.380;7.226;2022-09-09T15:01:39;100784.94;;;19.30;100.00
25498;BME280;13406;53.380;7.226;2022-09-09T15:04:06;100763.25;;;19.73;100.00
25498;BME280;13406;53.380;7.226;2022-09-09T15:06:34;100801.69;;;20.71;100.00
25498;BME280;13406;53.380;7.226;2022-09-09T15:09:01;100693.44;;;19.89;100.00
25498;BME280;13406;53.380;7.226;2022-09-09T15:11:28;100781.94;;;20.49;100.00
25498;BME280;13406;53.380;7.226;2022-09-09T15:13:55;100746.25;;;20.45;100.00
25498;BME280;13406;53.380;7.226;2022-09-09T15:16:23;100786.84;;;19.94;100.00
25498;BME280;13406;53.380;7.226;2022-09-09T15:18:51;100626.34;;;18.33;100.00
25498;BME280;13406;53.380;7.226;2022-09-09T15:21:20;100802.09;;;19.04;100.00
25498;BME280;13406;53.380;7.226;2022-09-09T15:23:46;100664.56;;;17.82;100.00
25498;BME280;13406;53.380;7.226;2022-09-09T15:26:13;100453.75;;;16.73;100.00
25498;BME280;13406;53.380;7.226;2022-09-09T15:28:40;100687.09;;;18.05;100.00
25498;BME280;13406;53.380;7.226;2022-09-09T15:31:16;100578.66;;;17.27;100.00
25498;BME280;13406;53.380;7.226;2022-09-09T15:33:50;100816.44;;;18.77;100.00
25498;BME280;13406;53.380;7.226;2022-09-09T15:36:19;100792.38;;;18.64;100.00
25498;BME280;13406;53.380;7.226;2022-09-09T15:38:44;100678.28;;;18.15;100.00
25498;BME280;13406;53.380;7.226;2022-09-09T15:41:11;100643.78;;;17.71;100.00
25498;BME280;13406;53.380;7.226;2022-09-09T15:43:37;100448.75;;;16.65;100.00
25498;BME280;13406;53.380;7.226;2022-09-09T15:46:32;100477.19;;;17.01;100.00
25498;BME280;13406;53.380;7.226;2022-09-09T15:49:03;100515.56;;;16.93;100.00
25498;BME280;13406;53.380;7.226;2022-09-09T15:51:29;100752.53;;;18.25;100.00
25498;BME280;13406;53.380;7.226;2022-09-09T15:53:56;100804.97;;;18.92;100.00
25498;BME280;13406;53.380;7.226;2022-09-09T15:56:24;100689.63;;;18.34;100.00
25498;BME280;13406;53.380;7.226;2022-09-09T15:58:50;100750.50;;;18.38;100.00
25498;BME280;13406;53.380;7.226;2022-09-09T16:01:17;100538.09;;;17.15;100.00
25498;BME280;13406;53.380;7.226;2022-09-09T16:03:44;100475.25;;;16.63;100.00